sensor_id;sensor_type;location;lat;lon;timestamp;P1;durP1;ratioP1;P2;durP2;ratioP2
68178;SDS011;54998;42.656;23.382;2022-10-28T00:01:14;6.97;;;3.70;;
68178;SDS011;54998;42.656;23.382;2022-10-28T00:03:45;8.57;;;3.33;;
68178;SDS011;54998;42.656;23.382;2022-10-28T00:06:14;6.97;;;3.25;;
68178;SDS011;54998;42.656;23.382;2022-10-28T00:08:42;5.82;;;3.10;;
68178;SDS011;54998;42.656;23.382;2022-10-28T00:11:09;7.22;;;2.53;;
68178;SDS011;54998;42.656;23.382;2022-10-28T00:13:38;5.82;;;2.72;;
68178;SDS011;54998;42.656;23.382;2022-10-28T00:16:10;7.90;;;4.40;;
68178;SDS011;54998;42.656;23.382;2022-10-28T00:18:36;6.30;;;3.35;;
68178;SDS011;54998;42.656;23.382;2022-10-28T00:21:03;5.38;;;2.80;;
68178;SDS011;54998;42.656;23.382;2022-10-28T00:23:31;5.25;;;2.25;;
68178;SDS011;54998;42.656;23.382;2022-10-28T00:26:11;7.18;;;2.70;;
68178;SDS011;54998;42.656;23.382;2022-10-28T00:28:55;6.70;;;2.78;;
68178;SDS011;54998;42.656;23.382;2022-10-28T00:31:26;5.50;;;2.80;;
68178;SDS011;54998;42.656;23.382;2022-10-28T00:33:52;6.85;;;2.90;;
68178;SDS011;54998;42.656;23.382;2022-10-28T00:36:23;5.90;;;3.40;;
68178;SDS011;54998;42.656;23.382;2022-10-28T00:38:56;4.93;;;2.95;;
68178;SDS011;54998;42.656;23.382;2022-10-28T00:41:23;5.93;;;2.50;;
68178;SDS011;54998;42.656;23.382;2022-10-28T00:43:54;6.95;;;3.10;;
68178;SDS011;54998;42.656;23.382;2022-10-28T00:46:26;5.88;;;3.10;;
68178;SDS011;54998;42.656;23.382;2022-10-28T00:51:49;5.93;;;2.80;;
68178;SDS011;54998;42.656;23.382;2022-10-28T00:54:17;7.13;;;2.40;;
68178;SDS011;54998;42.656;23.382;2022-10-28T00:59:15;6.20;;;2.85;;
68178;SDS011;54998;42.656;23.382;2022-10-28T01:01:53;4.82;;;2.50;;
68178;SDS011;54998;42.656;23.382;2022-10-28T01:04:19;6.00;;;3.22;;
68178;SDS011;54998;42.656;23.382;2022-10-28T01:06:46;5.88;;;2.22;;
68178;SDS011;54998;42.656;23.382;2022-10-28T01:09:12;5.18;;;2.85;;
68178;SDS011;54998;42.656;23.382;2022-10-28T01:11:41;4.97;;;2.83;;
68178;SDS011;54998;42.656;23.382;2022-10-28T01:14:36;5.15;;;2.55;;
68178;SDS011;54998;42.656;23.382;2022-10-28T01:17:24;5.07;;;3.20;;
68178;SDS011;54998;42.656;23.382;2022-10-28T01:33:35;5.03;;;2.65;;
68178;SDS011;54998;42.656;23.382;2022-10-28T01:36:50;6.03;;;3.22;;
68178;SDS011;54998;42.656;23.382;2022-10-28T01:38:56;8.18;;;2.80;;
68178;SDS011;54998;42.656;23.382;2022-10-28T01:41:30;5.93;;;3.10;;
68178;SDS011;54998;42.656;23.382;2022-10-28T01:44:07;5.03;;;2.60;;
68178;SDS011;54998;42.656;23.382;2022-10-28T01:46:56;5.40;;;2.38;;
68178;SDS011;54998;42.656;23.382;2022-10-28T01:52:12;5.07;;;3.05;;
68178;SDS011;54998;42.656;23.382;2022-10-28T01:54:44;6.80;;;3.17;;
68178;SDS011;54998;42.656;23.382;2022-10-28T01:57:12;5.82;;;2.65;;
68178;SDS011;54998;42.656;23.382;2022-10-28T01:59:40;6.32;;;3.10;;
68178;SDS011;54998;42.656;23.382;2022-10-28T02:02:07;6.10;;;2.95;;
68178;SDS011;54998;42.656;23.382;2022-10-28T02:04:32;5.85;;;3.42;;
68178;SDS011;54998;42.656;23.382;2022-10-28T02:06:58;5.18;;;3.30;;
68178;SDS011;54998;42.656;23.382;2022-10-28T02:19:52;6.70;;;3.30;;
68178;SDS011;54998;42.656;23.382;2022-10-28T02:22:50;5.85;;;3.25;;
68178;SDS011;54998;42.656;23.382;2022-10-28T02:30:27;5.90;;;3.10;;
68178;SDS011;54998;42.656;23.382;2022-10-28T02:35:30;6.43;;;3.45;;
68178;SDS011;54998;42.656;23.382;2022-10-28T02:38:03;5.63;;;3.53;;
68178;SDS011;54998;42.656;23.382;2022-10-28T02:40:34;5.90;;;3.42;;
68178;SDS011;54998;42.656;23.382;2022-10-28T02:43:03;6.13;;;3.45;;
68178;SDS011;54998;42.656;23.382;2022-10-28T02:45:35;8.95;;;4.10;;
68178;SDS011;54998;42.656;23.382;2022-10-28T02:48:47;7.20;;;3.97;;
68178;SDS011;54998;42.656;23.382;2022-10-28T02:51:10;5.57;;;3.47;;
68178;SDS011;54998;42.656;23.382;2022-10-28T02:54:22;8.80;;;3.78;;
68178;SDS011;54998;42.656;23.382;2022-10-28T02:56:39;6.78;;;3.63;;
68178;SDS011;54998;42.656;23.382;2022-10-28T02:59:11;5.45;;;3.50;;
68178;SDS011;54998;42.656;23.382;2022-10-28T03:01:37;5.80;;;3.20;;
68178;SDS011;54998;42.656;23.382;2022-10-28T03:04:03;7.90;;;4.50;;
68178;SDS011;54998;42.656;23.382;2022-10-28T03:06:30;9.75;;;5.50;;
68178;SDS011;54998;42.656;23.382;2022-10-28T03:08:55;7.85;;;4.88;;
68178;SDS011;54998;42.656;23.382;2022-10-28T03:11:21;8.02;;;3.45;;
68178;SDS011;54998;42.656;23.382;2022-10-28T03:13:46;8.52;;;4.60;;
68178;SDS011;54998;42.656;23.382;2022-10-28T03:16:12;6.93;;;3.35;;
68178;SDS011;54998;42.656;23.382;2022-10-28T03:18:37;9.30;;;4.88;;
68178;SDS011;54998;42.656;23.382;2022-10-28T03:21:03;6.90;;;3.47;;
68178;SDS011;54998;42.656;23.382;2022-10-28T03:23:28;8.75;;;3.72;;
68178;SDS011;54998;42.656;23.382;2022-10-28T03:25:53;6.40;;;3.20;;
68178;SDS011;54998;42.656;23.382;2022-10-28T03:28:19;7.47;;;3.42;;
68178;SDS011;54998;42.656;23.382;2022-10-28T03:30:44;5.85;;;3.00;;
68178;SDS011;54998;42.656;23.382;2022-10-28T03:33:09;6.25;;;3.03;;
68178;SDS011;54998;42.656;23.382;2022-10-28T03:35:35;13.75;;;6.95;;
68178;SDS011;54998;42.656;23.382;2022-10-28T03:38:00;7.90;;;4.28;;
68178;SDS011;54998;42.656;23.382;2022-10-28T03:40:25;8.30;;;3.47;;
68178;SDS011;54998;42.656;23.382;2022-10-28T03:42:51;8.27;;;4.10;;
68178;SDS011;54998;42.656;23.382;2022-10-28T03:45:16;9.68;;;3.90;;
68178;SDS011;54998;42.656;23.382;2022-10-28T03:47:42;8.63;;;4.40;;
68178;SDS011;54998;42.656;23.382;2022-10-28T03:50:07;7.85;;;3.63;;
68178;SDS011;54998;42.656;23.382;2022-10-28T03:52:33;9.25;;;4.20;;
68178;SDS011;54998;42.656;23.382;2022-10-28T03:54:58;5.13;;;3.25;;
68178;SDS011;54998;42.656;23.382;2022-10-28T03:57:24;6.78;;;4.30;;
68178;SDS011;54998;42.656;23.382;2022-10-28T03:59:49;8.38;;;4.32;;
68178;SDS011;54998;42.656;23.382;2022-10-28T04:02:14;6.55;;;3.38;;
68178;SDS011;54998;42.656;23.382;2022-10-28T04:04:40;8.68;;;4.43;;
68178;SDS011;54998;42.656;23.382;2022-10-28T04:07:05;7.45;;;3.70;;
68178;SDS011;54998;42.656;23.382;2022-10-28T04:09:31;8.02;;;4.05;;
68178;SDS011;54998;42.656;23.382;2022-10-28T04:11:56;7.45;;;4.68;;
68178;SDS011;54998;42.656;23.382;2022-10-28T04:14:21;9.70;;;3.80;;
68178;SDS011;54998;42.656;23.382;2022-10-28T04:16:47;9.27;;;5.00;;
68178;SDS011;54998;42.656;23.382;2022-10-28T04:19:12;8.35;;;4.68;;
68178;SDS011;54998;42.656;23.382;2022-10-28T04:21:38;9.35;;;4.72;;
68178;SDS011;54998;42.656;23.382;2022-10-28T04:24:03;11.43;;;4.38;;
68178;SDS011;54998;42.656;23.382;2022-10-28T04:26:29;10.63;;;4.97;;
68178;SDS011;54998;42.656;23.382;2022-10-28T04:28:55;10.07;;;5.20;;
68178;SDS011;54998;42.656;23.382;2022-10-28T04:31:21;8.70;;;4.82;;
68178;SDS011;54998;42.656;23.382;2022-10-28T04:33:46;10.77;;;4.65;;
68178;SDS011;54998;42.656;23.382;2022-10-28T04:36:12;10.48;;;5.40;;
68178;SDS011;54998;42.656;23.382;2022-10-28T04:38:37;13.32;;;5.72;;
68178;SDS011;54998;42.656;23.382;2022-10-28T04:41:03;10.65;;;5.13;;
68178;SDS011;54998;42.656;23.382;2022-10-28T04:43:28;13.65;;;5.55;;
68178;SDS011;54998;42.656;23.382;2022-10-28T04:45:54;12.30;;;4.53;;
68178;SDS011;54998;42.656;23.382;2022-10-28T04:48:19;8.90;;;4.38;;
68178;SDS011;54998;42.656;23.382;2022-10-28T04:50:45;8.40;;;4.70;;
68178;SDS011;54998;42.656;23.382;2022-10-28T04:53:11;7.30;;;3.63;;
68178;SDS011;54998;42.656;23.382;2022-10-28T04:55:37;6.82;;;3.97;;
68178;SDS011;54998;42.656;23.382;2022-10-28T04:58:03;12.25;;;4.53;;
68178;SDS011;54998;42.656;23.382;2022-10-28T05:00:29;8.77;;;4.20;;
68178;SDS011;54998;42.656;23.382;2022-10-28T05:02:55;13.50;;;4.45;;
68178;SDS011;54998;42.656;23.382;2022-10-28T05:05:20;10.77;;;5.15;;
68178;SDS011;54998;42.656;23.382;2022-10-28T05:07:46;13.40;;;5.82;;
68178;SDS011;54998;42.656;23.382;2022-10-28T05:10:11;18.48;;;6.15;;
68178;SDS011;54998;42.656;23.382;2022-10-28T05:12:42;16.92;;;7.40;;
68178;SDS011;54998;42.656;23.382;2022-10-28T05:15:11;17.88;;;7.22;;
68178;SDS011;54998;42.656;23.382;2022-10-28T05:17:47;10.60;;;5.70;;
68178;SDS011;54998;42.656;23.382;2022-10-28T05:20:14;16.20;;;6.78;;
68178;SDS011;54998;42.656;23.382;2022-10-28T05:22:47;18.70;;;6.65;;
68178;SDS011;54998;42.656;23.382;2022-10-28T05:25:14;23.40;;;7.03;;
68178;SDS011;54998;42.656;23.382;2022-10-28T05:27:40;14.93;;;5.57;;
68178;SDS011;54998;42.656;23.382;2022-10-28T05:30:06;15.88;;;5.75;;
68178;SDS011;54998;42.656;23.382;2022-10-28T05:34:58;9.73;;;5.78;;
68178;SDS011;54998;42.656;23.382;2022-10-28T05:37:23;14.52;;;5.90;;
68178;SDS011;54998;42.656;23.382;2022-10-28T05:39:49;9.35;;;4.25;;
68178;SDS011;54998;42.656;23.382;2022-10-28T05:42:14;12.70;;;4.60;;
68178;SDS011;54998;42.656;23.382;2022-10-28T05:44:39;9.45;;;4.30;;
68178;SDS011;54998;42.656;23.382;2022-10-28T05:47:05;10.77;;;3.90;;
68178;SDS011;54998;42.656;23.382;2022-10-28T05:49:30;11.30;;;4.03;;
68178;SDS011;54998;42.656;23.382;2022-10-28T05:51:56;7.97;;;3.60;;
68178;SDS011;54998;42.656;23.382;2022-10-28T05:54:21;15.52;;;5.90;;
68178;SDS011;54998;42.656;23.382;2022-10-28T05:56:47;12.32;;;5.38;;
68178;SDS011;54998;42.656;23.382;2022-10-28T05:59:12;8.30;;;4.15;;
68178;SDS011;54998;42.656;23.382;2022-10-28T06:01:38;7.30;;;3.28;;
68178;SDS011;54998;42.656;23.382;2022-10-28T06:04:03;6.70;;;3.60;;
68178;SDS011;54998;42.656;23.382;2022-10-28T06:06:30;8.40;;;4.20;;
68178;SDS011;54998;42.656;23.382;2022-10-28T06:08:56;11.05;;;5.18;;
68178;SDS011;54998;42.656;23.382;2022-10-28T06:11:21;7.13;;;3.40;;
68178;SDS011;54998;42.656;23.382;2022-10-28T06:13:47;9.35;;;3.50;;
68178;SDS011;54998;42.656;23.382;2022-10-28T06:16:12;8.02;;;3.60;;
68178;SDS011;54998;42.656;23.382;2022-10-28T06:18:38;6.38;;;3.47;;
68178;SDS011;54998;42.656;23.382;2022-10-28T06:21:04;5.97;;;3.55;;
68178;SDS011;54998;42.656;23.382;2022-10-28T06:23:30;7.30;;;4.25;;
68178;SDS011;54998;42.656;23.382;2022-10-28T06:25:59;5.85;;;4.18;;
68178;SDS011;54998;42.656;23.382;2022-10-28T06:28:26;8.20;;;3.92;;
68178;SDS011;54998;42.656;23.382;2022-10-28T06:30:51;12.93;;;4.80;;
68178;SDS011;54998;42.656;23.382;2022-10-28T06:33:17;7.28;;;4.20;;
68178;SDS011;54998;42.656;23.382;2022-10-28T06:35:42;9.20;;;4.90;;
68178;SDS011;54998;42.656;23.382;2022-10-28T06:38:08;14.98;;;7.95;;
68178;SDS011;54998;42.656;23.382;2022-10-28T06:40:34;20.00;;;8.68;;
68178;SDS011;54998;42.656;23.382;2022-10-28T06:43:00;12.48;;;7.22;;
68178;SDS011;54998;42.656;23.382;2022-10-28T06:45:28;16.35;;;6.93;;
68178;SDS011;54998;42.656;23.382;2022-10-28T06:47:55;17.80;;;6.60;;
68178;SDS011;54998;42.656;23.382;2022-10-28T06:50:25;12.52;;;6.63;;
68178;SDS011;54998;42.656;23.382;2022-10-28T06:52:56;10.80;;;5.93;;
68178;SDS011;54998;42.656;23.382;2022-10-28T06:55:22;15.38;;;7.05;;
68178;SDS011;54998;42.656;23.382;2022-10-28T06:57:48;14.25;;;7.10;;
68178;SDS011;54998;42.656;23.382;2022-10-28T07:00:14;18.67;;;7.88;;
68178;SDS011;54998;42.656;23.382;2022-10-28T07:02:40;14.73;;;7.50;;
68178;SDS011;54998;42.656;23.382;2022-10-28T07:05:05;11.68;;;6.13;;
68178;SDS011;54998;42.656;23.382;2022-10-28T07:07:31;12.15;;;6.85;;
68178;SDS011;54998;42.656;23.382;2022-10-28T07:09:57;13.13;;;6.70;;
68178;SDS011;54998;42.656;23.382;2022-10-28T07:12:22;12.02;;;6.15;;
68178;SDS011;54998;42.656;23.382;2022-10-28T07:14:48;13.02;;;6.18;;
68178;SDS011;54998;42.656;23.382;2022-10-28T07:17:13;9.63;;;6.18;;
68178;SDS011;54998;42.656;23.382;2022-10-28T07:19:38;11.75;;;6.03;;
68178;SDS011;54998;42.656;23.382;2022-10-28T07:22:04;13.88;;;6.63;;
68178;SDS011;54998;42.656;23.382;2022-10-28T07:24:29;12.52;;;6.43;;
68178;SDS011;54998;42.656;23.382;2022-10-28T07:26:55;11.98;;;7.70;;
68178;SDS011;54998;42.656;23.382;2022-10-28T07:31:46;16.77;;;8.82;;
68178;SDS011;54998;42.656;23.382;2022-10-28T07:36:36;14.50;;;8.30;;
68178;SDS011;54998;42.656;23.382;2022-10-28T07:39:02;13.07;;;8.40;;
68178;SDS011;54998;42.656;23.382;2022-10-28T07:41:27;16.63;;;8.50;;
68178;SDS011;54998;42.656;23.382;2022-10-28T07:46:18;14.73;;;8.93;;
68178;SDS011;54998;42.656;23.382;2022-10-28T07:51:10;13.93;;;8.55;;
68178;SDS011;54998;42.656;23.382;2022-10-28T07:53:37;19.60;;;9.13;;
68178;SDS011;54998;42.656;23.382;2022-10-28T07:58:30;17.98;;;8.85;;
68178;SDS011;54998;42.656;23.382;2022-10-28T08:03:25;15.85;;;8.57;;
68178;SDS011;54998;42.656;23.382;2022-10-28T08:08:22;14.90;;;7.97;;
68178;SDS011;54998;42.656;23.382;2022-10-28T08:10:48;11.48;;;8.52;;
68178;SDS011;54998;42.656;23.382;2022-10-28T08:15:38;13.93;;;9.03;;
68178;SDS011;54998;42.656;23.382;2022-10-28T08:20:29;22.10;;;9.65;;
68178;SDS011;54998;42.656;23.382;2022-10-28T08:25:21;15.10;;;8.65;;
68178;SDS011;54998;42.656;23.382;2022-10-28T08:30:12;17.97;;;9.70;;
68178;SDS011;54998;42.656;23.382;2022-10-28T08:32:37;16.65;;;9.35;;
68178;SDS011;54998;42.656;23.382;2022-10-28T08:35:03;17.77;;;9.57;;
68178;SDS011;54998;42.656;23.382;2022-10-28T08:39:54;16.73;;;8.57;;
68178;SDS011;54998;42.656;23.382;2022-10-28T08:50:42;11.38;;;6.88;;
68178;SDS011;54998;42.656;23.382;2022-10-28T08:53:18;11.68;;;6.72;;
68178;SDS011;54998;42.656;23.382;2022-10-28T08:55:47;12.45;;;6.97;;
68178;SDS011;54998;42.656;23.382;2022-10-28T09:00:43;16.08;;;7.82;;
68178;SDS011;54998;42.656;23.382;2022-10-28T09:03:14;15.48;;;7.10;;
68178;SDS011;54998;42.656;23.382;2022-10-28T09:05:44;15.15;;;7.90;;
68178;SDS011;54998;42.656;23.382;2022-10-28T09:08:22;17.30;;;7.97;;
68178;SDS011;54998;42.656;23.382;2022-10-28T09:13:39;12.43;;;7.25;;
68178;SDS011;54998;42.656;23.382;2022-10-28T09:19:02;10.75;;;6.05;;
68178;SDS011;54998;42.656;23.382;2022-10-28T09:27:52;14.50;;;8.25;;
68178;SDS011;54998;42.656;23.382;2022-10-28T09:30:43;14.02;;;7.47;;
68178;SDS011;54998;42.656;23.382;2022-10-28T09:35:58;11.35;;;7.28;;
68178;SDS011;54998;42.656;23.382;2022-10-28T09:46:04;13.23;;;6.57;;
68178;SDS011;54998;42.656;23.382;2022-10-28T09:48:49;11.23;;;5.60;;
68178;SDS011;54998;42.656;23.382;2022-10-28T09:51:27;11.65;;;6.43;;
68178;SDS011;54998;42.656;23.382;2022-10-28T09:53:58;14.63;;;6.20;;
68178;SDS011;54998;42.656;23.382;2022-10-28T09:56:25;10.88;;;5.97;;
68178;SDS011;54998;42.656;23.382;2022-10-28T09:58:52;10.25;;;5.72;;
68178;SDS011;54998;42.656;23.382;2022-10-28T10:01:22;12.43;;;4.85;;
68178;SDS011;54998;42.656;23.382;2022-10-28T10:03:47;9.05;;;4.50;;
68178;SDS011;54998;42.656;23.382;2022-10-28T10:06:18;10.93;;;4.50;;
68178;SDS011;54998;42.656;23.382;2022-10-28T10:08:49;7.70;;;4.10;;
68178;SDS011;54998;42.656;23.382;2022-10-28T10:11:25;8.95;;;3.97;;
68178;SDS011;54998;42.656;23.382;2022-10-28T10:13:54;11.15;;;4.90;;
68178;SDS011;54998;42.656;23.382;2022-10-28T10:16:25;12.18;;;4.05;;
68178;SDS011;54998;42.656;23.382;2022-10-28T10:19:02;6.47;;;4.15;;
68178;SDS011;54998;42.656;23.382;2022-10-28T10:21:50;6.95;;;4.32;;
68178;SDS011;54998;42.656;23.382;2022-10-28T10:24:28;6.90;;;3.55;;
68178;SDS011;54998;42.656;23.382;2022-10-28T10:26:54;6.22;;;3.40;;
68178;SDS011;54998;42.656;23.382;2022-10-28T10:29:22;10.98;;;4.30;;
68178;SDS011;54998;42.656;23.382;2022-10-28T10:31:48;8.90;;;4.30;;
68178;SDS011;54998;42.656;23.382;2022-10-28T10:34:29;6.60;;;3.15;;
68178;SDS011;54998;42.656;23.382;2022-10-28T10:36:55;6.88;;;3.45;;
68178;SDS011;54998;42.656;23.382;2022-10-28T10:39:30;4.30;;;3.30;;
68178;SDS011;54998;42.656;23.382;2022-10-28T10:42:00;9.20;;;3.83;;
68178;SDS011;54998;42.656;23.382;2022-10-28T10:44:33;6.60;;;3.78;;
68178;SDS011;54998;42.656;23.382;2022-10-28T10:51:54;5.32;;;3.30;;
68178;SDS011;54998;42.656;23.382;2022-10-28T10:54:26;9.35;;;3.85;;
68178;SDS011;54998;42.656;23.382;2022-10-28T10:57:05;5.72;;;3.38;;
68178;SDS011;54998;42.656;23.382;2022-10-28T10:59:34;7.13;;;3.30;;
68178;SDS011;54998;42.656;23.382;2022-10-28T11:02:01;5.03;;;2.97;;
68178;SDS011;54998;42.656;23.382;2022-10-28T11:04:42;6.18;;;3.15;;
68178;SDS011;54998;42.656;23.382;2022-10-28T11:07:15;6.47;;;3.17;;
68178;SDS011;54998;42.656;23.382;2022-10-28T11:12:40;3.90;;;3.20;;
68178;SDS011;54998;42.656;23.382;2022-10-28T11:17:40;9.35;;;3.47;;
68178;SDS011;54998;42.656;23.382;2022-10-28T11:20:26;5.65;;;3.35;;
68178;SDS011;54998;42.656;23.382;2022-10-28T11:28:17;6.53;;;3.30;;
68178;SDS011;54998;42.656;23.382;2022-10-28T11:31:15;5.70;;;3.55;;
68178;SDS011;54998;42.656;23.382;2022-10-28T11:33:47;8.52;;;3.50;;
68178;SDS011;54998;42.656;23.382;2022-10-28T11:39:19;8.45;;;3.63;;
68178;SDS011;54998;42.656;23.382;2022-10-28T11:47:36;6.70;;;2.88;;
68178;SDS011;54998;42.656;23.382;2022-10-28T11:55:38;7.15;;;3.08;;
68178;SDS011;54998;42.656;23.382;2022-10-28T11:58:22;6.00;;;2.55;;
68178;SDS011;54998;42.656;23.382;2022-10-28T12:15:10;5.00;;;2.35;;
68178;SDS011;54998;42.656;23.382;2022-10-28T12:24:08;5.07;;;2.72;;
68178;SDS011;54998;42.656;23.382;2022-10-28T12:26:39;4.95;;;2.95;;
68178;SDS011;54998;42.656;23.382;2022-10-28T12:31:51;3.45;;;2.13;;
68178;SDS011;54998;42.656;23.382;2022-10-28T12:34:44;4.82;;;2.85;;
68178;SDS011;54998;42.656;23.382;2022-10-28T12:37:21;4.55;;;3.13;;
68178;SDS011;54998;42.656;23.382;2022-10-28T12:42:44;7.18;;;3.13;;
68178;SDS011;54998;42.656;23.382;2022-10-28T12:45:14;4.80;;;2.60;;
68178;SDS011;54998;42.656;23.382;2022-10-28T12:47:59;4.72;;;2.35;;
68178;SDS011;54998;42.656;23.382;2022-10-28T13:00:55;4.57;;;2.63;;
68178;SDS011;54998;42.656;23.382;2022-10-28T13:03:25;4.80;;;2.58;;
68178;SDS011;54998;42.656;23.382;2022-10-28T13:05:57;5.03;;;2.60;;
68178;SDS011;54998;42.656;23.382;2022-10-28T13:17:34;5.22;;;2.53;;
68178;SDS011;54998;42.656;23.382;2022-10-28T13:25:55;5.25;;;2.80;;
68178;SDS011;54998;42.656;23.382;2022-10-28T13:28:33;5.57;;;3.03;;
68178;SDS011;54998;42.656;23.382;2022-10-28T13:31:06;5.93;;;3.03;;
68178;SDS011;54998;42.656;23.382;2022-10-28T13:33:33;4.47;;;3.13;;
68178;SDS011;54998;42.656;23.382;2022-10-28T13:38:41;4.75;;;2.70;;
68178;SDS011;54998;42.656;23.382;2022-10-28T13:41:09;3.80;;;2.47;;
68178;SDS011;54998;42.656;23.382;2022-10-28T13:46:57;5.38;;;2.83;;
68178;SDS011;54998;42.656;23.382;2022-10-28T13:52:27;9.95;;;3.30;;
68178;SDS011;54998;42.656;23.382;2022-10-28T13:54:53;5.50;;;3.38;;
68178;SDS011;54998;42.656;23.382;2022-10-28T13:57:35;5.43;;;2.70;;
68178;SDS011;54998;42.656;23.382;2022-10-28T14:10:24;4.13;;;2.58;;
68178;SDS011;54998;42.656;23.382;2022-10-28T14:15:39;6.43;;;3.22;;
68178;SDS011;54998;42.656;23.382;2022-10-28T14:49:33;6.78;;;3.42;;
68178;SDS011;54998;42.656;23.382;2022-10-28T14:52:12;5.05;;;2.40;;
68178;SDS011;54998;42.656;23.382;2022-10-28T14:54:46;4.65;;;2.83;;
68178;SDS011;54998;42.656;23.382;2022-10-28T14:57:19;3.63;;;1.92;;
68178;SDS011;54998;42.656;23.382;2022-10-28T14:59:54;3.33;;;2.08;;
68178;SDS011;54998;42.656;23.382;2022-10-28T15:02:24;5.40;;;2.65;;
68178;SDS011;54998;42.656;23.382;2022-10-28T15:05:00;6.63;;;2.30;;
68178;SDS011;54998;42.656;23.382;2022-10-28T15:07:27;5.80;;;2.53;;
68178;SDS011;54998;42.656;23.382;2022-10-28T15:09:53;5.00;;;2.40;;
68178;SDS011;54998;42.656;23.382;2022-10-28T15:12:20;5.70;;;2.58;;
68178;SDS011;54998;42.656;23.382;2022-10-28T15:14:51;4.53;;;2.35;;
68178;SDS011;54998;42.656;23.382;2022-10-28T15:17:23;5.35;;;2.53;;
68178;SDS011;54998;42.656;23.382;2022-10-28T15:19:50;6.03;;;3.30;;
68178;SDS011;54998;42.656;23.382;2022-10-28T15:22:24;10.82;;;4.40;;
68178;SDS011;54998;42.656;23.382;2022-10-28T15:25:11;8.73;;;4.07;;
68178;SDS011;54998;42.656;23.382;2022-10-28T15:27:39;13.95;;;5.25;;
68178;SDS011;54998;42.656;23.382;2022-10-28T15:30:27;12.55;;;5.65;;
68178;SDS011;54998;42.656;23.382;2022-10-28T15:32:52;11.70;;;5.53;;
68178;SDS011;54998;42.656;23.382;2022-10-28T15:38:18;12.38;;;5.00;;
68178;SDS011;54998;42.656;23.382;2022-10-28T15:40:49;12.20;;;4.70;;
68178;SDS011;54998;42.656;23.382;2022-10-28T15:43:20;12.43;;;5.00;;
68178;SDS011;54998;42.656;23.382;2022-10-28T15:45:50;16.27;;;5.43;;
68178;SDS011;54998;42.656;23.382;2022-10-28T15:48:19;17.50;;;5.57;;
68178;SDS011;54998;42.656;23.382;2022-10-28T15:53:39;15.60;;;6.57;;
68178;SDS011;54998;42.656;23.382;2022-10-28T15:56:16;20.95;;;8.55;;
68178;SDS011;54998;42.656;23.382;2022-10-28T15:58:44;17.50;;;6.90;;
68178;SDS011;54998;42.656;23.382;2022-10-28T16:01:54;17.73;;;6.53;;
68178;SDS011;54998;42.656;23.382;2022-10-28T16:04:49;23.95;;;8.75;;
68178;SDS011;54998;42.656;23.382;2022-10-28T16:06:53;15.90;;;7.25;;
68178;SDS011;54998;42.656;23.382;2022-10-28T16:11:55;19.15;;;8.25;;
68178;SDS011;54998;42.656;23.382;2022-10-28T16:14:43;13.10;;;7.03;;
68178;SDS011;54998;42.656;23.382;2022-10-28T16:17:21;14.50;;;4.75;;
68178;SDS011;54998;42.656;23.382;2022-10-28T16:19:54;12.85;;;5.28;;
68178;SDS011;54998;42.656;23.382;2022-10-28T16:22:20;10.55;;;4.82;;
68178;SDS011;54998;42.656;23.382;2022-10-28T16:24:48;9.02;;;4.13;;
68178;SDS011;54998;42.656;23.382;2022-10-28T16:27:15;10.05;;;4.25;;
68178;SDS011;54998;42.656;23.382;2022-10-28T16:29:44;9.43;;;3.95;;
68178;SDS011;54998;42.656;23.382;2022-10-28T16:32:10;9.30;;;4.45;;
68178;SDS011;54998;42.656;23.382;2022-10-28T16:34:37;12.15;;;6.82;;
68178;SDS011;54998;42.656;23.382;2022-10-28T16:37:02;17.17;;;5.75;;
68178;SDS011;54998;42.656;23.382;2022-10-28T16:39:28;14.45;;;5.75;;
68178;SDS011;54998;42.656;23.382;2022-10-28T16:41:53;11.93;;;5.20;;
68178;SDS011;54998;42.656;23.382;2022-10-28T16:44:21;13.75;;;6.20;;
68178;SDS011;54998;42.656;23.382;2022-10-28T16:46:50;14.00;;;5.53;;
68178;SDS011;54998;42.656;23.382;2022-10-28T16:49:15;12.90;;;4.70;;
68178;SDS011;54998;42.656;23.382;2022-10-28T16:51:42;11.05;;;5.50;;
68178;SDS011;54998;42.656;23.382;2022-10-28T16:54:09;9.05;;;3.40;;
68178;SDS011;54998;42.656;23.382;2022-10-28T16:56:35;8.30;;;4.78;;
68178;SDS011;54998;42.656;23.382;2022-10-28T16:59:00;11.02;;;5.65;;
68178;SDS011;54998;42.656;23.382;2022-10-28T17:01:26;11.93;;;4.72;;
68178;SDS011;54998;42.656;23.382;2022-10-28T17:03:51;8.38;;;4.47;;
68178;SDS011;54998;42.656;23.382;2022-10-28T17:06:17;6.72;;;3.28;;
68178;SDS011;54998;42.656;23.382;2022-10-28T17:08:42;11.07;;;4.80;;
68178;SDS011;54998;42.656;23.382;2022-10-28T17:11:09;9.38;;;4.60;;
68178;SDS011;54998;42.656;23.382;2022-10-28T17:13:38;6.80;;;3.50;;
68178;SDS011;54998;42.656;23.382;2022-10-28T17:16:04;7.93;;;3.70;;
68178;SDS011;54998;42.656;23.382;2022-10-28T17:18:29;10.55;;;3.90;;
68178;SDS011;54998;42.656;23.382;2022-10-28T17:20:58;24.38;;;13.25;;
68178;SDS011;54998;42.656;23.382;2022-10-28T17:23:25;14.98;;;7.20;;
68178;SDS011;54998;42.656;23.382;2022-10-28T17:26:00;11.43;;;4.30;;
68178;SDS011;54998;42.656;23.382;2022-10-28T17:28:26;18.60;;;5.65;;
68178;SDS011;54998;42.656;23.382;2022-10-28T17:30:52;15.82;;;6.95;;
68178;SDS011;54998;42.656;23.382;2022-10-28T17:33:18;14.68;;;5.85;;
68178;SDS011;54998;42.656;23.382;2022-10-28T17:35:43;14.88;;;6.30;;
68178;SDS011;54998;42.656;23.382;2022-10-28T17:38:08;13.90;;;6.07;;
68178;SDS011;54998;42.656;23.382;2022-10-28T17:40:34;8.50;;;4.55;;
68178;SDS011;54998;42.656;23.382;2022-10-28T17:42:59;13.80;;;5.18;;
68178;SDS011;54998;42.656;23.382;2022-10-28T17:45:25;10.90;;;6.10;;
68178;SDS011;54998;42.656;23.382;2022-10-28T17:47:50;12.93;;;5.88;;
68178;SDS011;54998;42.656;23.382;2022-10-28T17:50:16;14.77;;;5.47;;
68178;SDS011;54998;42.656;23.382;2022-10-28T17:52:41;11.35;;;4.38;;
68178;SDS011;54998;42.656;23.382;2022-10-28T17:55:07;9.05;;;4.53;;
68178;SDS011;54998;42.656;23.382;2022-10-28T17:57:33;10.40;;;4.78;;
68178;SDS011;54998;42.656;23.382;2022-10-28T17:59:58;9.40;;;5.03;;
68178;SDS011;54998;42.656;23.382;2022-10-28T18:02:24;11.60;;;5.90;;
68178;SDS011;54998;42.656;23.382;2022-10-28T18:04:50;12.57;;;6.57;;
68178;SDS011;54998;42.656;23.382;2022-10-28T18:07:15;14.18;;;6.38;;
68178;SDS011;54998;42.656;23.382;2022-10-28T18:09:40;13.10;;;6.05;;
68178;SDS011;54998;42.656;23.382;2022-10-28T18:12:06;14.50;;;6.50;;
68178;SDS011;54998;42.656;23.382;2022-10-28T18:14:32;19.05;;;7.15;;
68178;SDS011;54998;42.656;23.382;2022-10-28T18:16:58;13.40;;;6.00;;
68178;SDS011;54998;42.656;23.382;2022-10-28T18:19:23;13.88;;;6.65;;
68178;SDS011;54998;42.656;23.382;2022-10-28T18:21:49;12.02;;;6.07;;
68178;SDS011;54998;42.656;23.382;2022-10-28T18:24:14;12.00;;;5.22;;
68178;SDS011;54998;42.656;23.382;2022-10-28T18:26:40;13.57;;;5.70;;
68178;SDS011;54998;42.656;23.382;2022-10-28T18:29:06;14.95;;;5.68;;
68178;SDS011;54998;42.656;23.382;2022-10-28T18:31:34;11.57;;;4.88;;
68178;SDS011;54998;42.656;23.382;2022-10-28T18:34:01;10.63;;;5.28;;
68178;SDS011;54998;42.656;23.382;2022-10-28T18:36:28;12.70;;;5.40;;
68178;SDS011;54998;42.656;23.382;2022-10-28T18:38:58;10.05;;;4.75;;
68178;SDS011;54998;42.656;23.382;2022-10-28T18:41:25;10.20;;;5.28;;
68178;SDS011;54998;42.656;23.382;2022-10-28T18:43:56;9.60;;;4.95;;
68178;SDS011;54998;42.656;23.382;2022-10-28T18:46:23;9.35;;;4.25;;
68178;SDS011;54998;42.656;23.382;2022-10-28T18:48:49;10.85;;;4.53;;